createdAt,value
2019-06-20T00:00:04.416Z,9.93
2019-06-20T00:02:31.705Z,9.90
2019-06-20T00:04:57.060Z,12.10
2019-06-20T00:07:22.531Z,12.20
2019-06-20T00:09:47.906Z,15.63
2019-06-20T00:12:13.187Z,18.20
2019-06-20T00:14:40.270Z,15.37
2019-06-20T00:17:05.863Z,13.20
2019-06-20T00:19:31.215Z,15.03
2019-06-20T00:21:56.511Z,11.33
2019-06-20T00:24:22.107Z,12.50
2019-06-20T00:26:47.536Z,8.63
2019-06-20T00:29:13.006Z,11.47
2019-06-20T00:31:38.461Z,11.20
2019-06-20T00:34:03.743Z,8.50
2019-06-20T00:36:29.111Z,9.27
2019-06-20T00:38:54.599Z,8.93
2019-06-20T00:41:19.964Z,8.77
2019-06-20T00:43:46.482Z,12.40
2019-06-20T00:46:12.989Z,9.20
2019-06-20T00:48:38.297Z,11.33
2019-06-20T00:51:03.740Z,8.07
2019-06-20T00:53:29.042Z,8.50
2019-06-20T00:55:54.343Z,9.33
2019-06-20T00:58:19.667Z,10.43
2019-06-20T01:00:45.092Z,9.03
2019-06-20T01:03:10.593Z,8.87
2019-06-20T01:05:35.895Z,9.80
2019-06-20T01:08:01.213Z,8.80
2019-06-20T01:10:26.627Z,7.93
2019-06-20T01:12:52.038Z,8.73
2019-06-20T01:15:17.468Z,10.03
2019-06-20T01:17:42.910Z,9.57
2019-06-20T01:20:08.442Z,9.47
2019-06-20T01:22:33.896Z,9.43
2019-06-20T01:24:59.407Z,11.63
2019-06-20T01:27:25.130Z,9.23
2019-06-20T01:29:50.583Z,9.37
2019-06-20T01:32:15.982Z,9.50
2019-06-20T01:34:41.546Z,9.20
2019-06-20T01:37:06.997Z,8.73
2019-06-20T01:39:32.335Z,10.17
2019-06-20T01:41:57.844Z,13.00
2019-06-20T01:44:23.503Z,9.40
2019-06-20T01:46:49.068Z,11.13
2019-06-20T01:49:14.384Z,11.33
2019-06-20T01:51:39.805Z,10.30
2019-06-20T01:54:05.259Z,12.10
2019-06-20T01:56:31.727Z,11.27
2019-06-20T01:58:57.019Z,11.03
2019-06-20T02:01:22.744Z,14.60
2019-06-20T02:03:48.515Z,11.27
2019-06-20T02:06:13.883Z,14.23
2019-06-20T02:08:39.163Z,12.30
2019-06-20T02:11:04.435Z,13.40
2019-06-20T02:13:29.843Z,12.07
2019-06-20T02:15:55.217Z,10.80
2019-06-20T02:18:20.734Z,12.33
2019-06-20T02:20:48.012Z,9.70
2019-06-20T02:23:13.275Z,7.30
2019-06-20T02:25:39.056Z,9.93
2019-06-20T02:28:04.543Z,17.23
2019-06-20T02:30:30.081Z,10.60
2019-06-20T02:32:55.359Z,24.07
2019-06-20T02:35:20.900Z,8.40
2019-06-20T02:37:47.536Z,8.60
2019-06-20T02:40:12.923Z,9.23
2019-06-20T02:42:38.362Z,8.63
2019-06-20T02:45:03.791Z,7.03
2019-06-20T02:47:29.161Z,6.67
2019-06-20T02:49:54.455Z,5.40
2019-06-20T02:52:19.967Z,6.97
2019-06-20T02:54:45.380Z,5.80
2019-06-20T02:57:10.687Z,6.73
2019-06-20T02:59:36.095Z,5.97
2019-06-20T03:02:01.391Z,5.77
2019-06-20T03:04:26.676Z,4.70
2019-06-20T03:06:52.102Z,8.13
2019-06-20T03:09:17.469Z,5.57
2019-06-20T03:11:42.910Z,5.80
2019-06-20T03:14:08.207Z,6.93
2019-06-20T03:16:33.723Z,14.37
2019-06-20T03:18:59.014Z,7.73
2019-06-20T03:21:24.356Z,9.07
2019-06-20T03:23:50.643Z,5.73
2019-06-20T03:26:16.030Z,10.30
2019-06-20T03:28:41.489Z,6.20
2019-06-20T03:31:06.856Z,8.40
2019-06-20T03:33:32.146Z,7.97
2019-06-20T03:35:57.572Z,7.57
2019-06-20T03:38:22.907Z,6.90
2019-06-20T03:40:48.215Z,8.03
2019-06-20T03:43:13.623Z,8.37
2019-06-20T03:45:39.031Z,7.30
2019-06-20T03:48:04.417Z,7.63
2019-06-20T03:50:29.818Z,8.07
2019-06-20T03:53:00.741Z,9.57
2019-06-20T03:55:26.022Z,14.27
2019-06-20T03:57:51.483Z,13.30
2019-06-20T04:00:18.700Z,9.33
2019-06-20T04:02:43.995Z,11.10
2019-06-20T04:05:09.683Z,14.80
2019-06-20T04:07:35.341Z,8.07
2019-06-20T04:10:00.748Z,9.03
2019-06-20T04:12:26.261Z,10.13
2019-06-20T04:14:51.570Z,9.80
2019-06-20T04:17:16.961Z,14.13
2019-06-20T04:19:42.239Z,9.60
2019-06-20T04:22:07.763Z,11.87
2019-06-20T04:24:33.328Z,9.40
2019-06-20T04:26:58.696Z,10.47
2019-06-20T04:29:24.001Z,10.20
2019-06-20T04:31:49.339Z,15.90
2019-06-20T04:34:14.702Z,11.57
2019-06-20T04:36:40.133Z,11.40
2019-06-20T04:39:18.393Z,11.53
2019-06-20T04:41:32.968Z,16.93
2019-06-20T04:43:58.306Z,12.57
2019-06-20T04:46:39.613Z,11.07
2019-06-20T04:49:04.935Z,11.60
2019-06-20T04:51:30.289Z,14.93
2019-06-20T04:53:55.578Z,15.10
2019-06-20T04:56:21.195Z,11.77
2019-06-20T04:58:46.699Z,13.73
2019-06-20T05:01:12.040Z,15.80
2019-06-20T05:03:37.539Z,14.80
2019-06-20T05:06:02.998Z,16.40
2019-06-20T05:08:28.402Z,17.33
2019-06-20T05:10:53.822Z,13.07
2019-06-20T05:13:19.303Z,14.53
2019-06-20T05:15:52.751Z,23.43
2019-06-20T05:18:13.319Z,20.43
2019-06-20T05:20:38.708Z,16.40
2019-06-20T05:23:04.016Z,20.23
2019-06-20T05:25:29.699Z,14.33
2019-06-20T05:27:55.138Z,17.60
2019-06-20T05:30:20.984Z,17.30
2019-06-20T05:32:46.388Z,16.97
2019-06-20T05:35:12.147Z,19.13
2019-06-20T05:37:37.740Z,19.20
2019-06-20T05:40:04.191Z,21.83
2019-06-20T05:42:29.591Z,20.40
2019-06-20T05:44:55.029Z,23.03
2019-06-20T05:47:20.367Z,22.10
2019-06-20T05:49:45.743Z,18.03
2019-06-20T05:52:11.230Z,23.50
2019-06-20T05:54:37.627Z,21.07
2019-06-20T05:57:04.597Z,23.97
2019-06-20T05:59:30.594Z,20.40
2019-06-20T06:01:56.505Z,22.30
2019-06-20T06:04:22.152Z,28.53
2019-06-20T06:06:47.642Z,38.30
2019-06-20T06:09:13.119Z,32.23
2019-06-20T06:11:38.563Z,35.63
2019-06-20T06:14:04.030Z,36.47
2019-06-20T06:16:29.315Z,39.47
2019-06-20T06:18:55.057Z,39.23
2019-06-20T06:21:20.739Z,42.30
2019-06-20T06:23:46.164Z,37.90
2019-06-20T06:26:11.838Z,42.37
2019-06-20T06:28:37.429Z,43.40
2019-06-20T06:31:03.098Z,46.40
2019-06-20T06:33:28.563Z,42.83
2019-06-20T06:35:54.086Z,44.30
2019-06-20T06:38:21.747Z,45.40
2019-06-20T06:40:46.677Z,40.97
2019-06-20T06:43:12.174Z,48.17
2019-06-20T06:45:37.724Z,43.60
2019-06-20T06:48:03.143Z,52.23
2019-06-20T06:50:28.607Z,49.57
2019-06-20T06:52:54.009Z,49.07
2019-06-20T06:55:19.500Z,54.30
2019-06-20T06:57:44.809Z,64.93
2019-06-20T07:00:10.417Z,57.53
2019-06-20T07:02:35.858Z,55.63
2019-06-20T07:05:01.264Z,55.93
2019-06-20T07:07:26.596Z,59.30
2019-06-20T07:09:51.908Z,60.63
2019-06-20T07:12:17.284Z,64.50
2019-06-20T07:14:43.008Z,75.53
2019-06-20T07:17:08.512Z,63.10
2019-06-20T07:19:33.976Z,73.13
2019-06-20T07:21:59.441Z,63.83
2019-06-20T07:24:24.863Z,70.37
2019-06-20T07:26:50.261Z,65.80
2019-06-20T07:29:16.898Z,68.17
2019-06-20T07:31:42.522Z,62.13
2019-06-20T07:34:07.839Z,66.10
2019-06-20T07:36:33.186Z,62.87
2019-06-20T07:38:58.656Z,60.37
2019-06-20T07:41:27.103Z,63.37
2019-06-20T07:43:52.471Z,65.23
2019-06-20T07:46:17.909Z,63.27
2019-06-20T07:48:43.395Z,64.17
2019-06-20T07:51:09.254Z,63.77
2019-06-20T07:53:35.171Z,64.30
2019-06-20T07:56:00.608Z,53.47
2019-06-20T07:58:26.384Z,54.87
2019-06-20T08:00:51.956Z,55.57
2019-06-20T08:03:17.993Z,51.30
2019-06-20T08:05:43.435Z,46.40
2019-06-20T08:08:09.028Z,44.93
2019-06-20T08:10:34.533Z,40.50
2019-06-20T08:12:59.963Z,35.20
2019-06-20T08:15:25.696Z,34.33
2019-06-20T08:17:51.357Z,33.53
2019-06-20T08:20:18.571Z,32.17
2019-06-20T08:22:44.112Z,33.73
2019-06-20T08:25:10.101Z,30.07
2019-06-20T08:27:50.639Z,31.27
2019-06-20T08:30:16.059Z,35.10
2019-06-20T08:32:41.348Z,32.67
2019-06-20T08:35:06.899Z,33.47
2019-06-20T08:37:32.271Z,34.00
2019-06-20T08:39:58.418Z,38.67
2019-06-20T08:42:23.839Z,35.90
2019-06-20T08:44:49.489Z,35.30
2019-06-20T08:47:14.958Z,30.97
2019-06-20T08:49:40.325Z,36.33
2019-06-20T08:52:05.742Z,37.70
2019-06-20T08:54:31.082Z,33.87
2019-06-20T08:56:57.392Z,37.10
2019-06-20T08:59:24.886Z,31.43
2019-06-20T09:01:50.754Z,34.97
2019-06-20T09:04:16.467Z,32.63
2019-06-20T09:06:41.774Z,33.77
2019-06-20T09:09:07.154Z,36.73
2019-06-20T09:11:32.551Z,35.27
2019-06-20T09:13:59.009Z,34.93
2019-06-20T09:16:25.154Z,33.40
2019-06-20T09:18:53.220Z,38.23
2019-06-20T09:21:18.190Z,37.47
2019-06-20T09:23:43.606Z,32.63
2019-06-20T09:26:10.083Z,35.80
2019-06-20T09:28:35.411Z,33.20
2019-06-20T09:31:00.800Z,35.10
2019-06-20T09:33:26.141Z,34.00
2019-06-20T09:35:52.681Z,32.80
2019-06-20T09:38:18.874Z,39.50
2019-06-20T09:40:44.371Z,39.63
2019-06-20T09:43:09.735Z,37.50
2019-06-20T09:45:36.246Z,40.03
2019-06-20T09:48:02.691Z,39.17
2019-06-20T09:50:28.244Z,34.87
2019-06-20T09:52:54.797Z,35.70
2019-06-20T09:55:20.823Z,36.50
2019-06-20T09:57:47.290Z,33.67
2019-06-20T10:00:14.901Z,33.30
2019-06-20T10:02:40.260Z,31.10
2019-06-20T10:05:05.886Z,36.10
2019-06-20T10:07:31.335Z,38.77
2019-06-20T10:09:56.620Z,33.53
2019-06-20T10:12:21.933Z,36.20
2019-06-20T10:14:48.013Z,34.50
2019-06-20T10:17:14.706Z,37.47
2019-06-20T10:19:40.168Z,34.60
2019-06-20T10:22:05.539Z,34.60
2019-06-20T10:24:30.959Z,36.40
2019-06-20T10:26:57.928Z,36.43
2019-06-20T10:29:23.519Z,29.63
2019-06-20T10:31:49.052Z,28.20
2019-06-20T10:34:14.679Z,27.50
2019-06-20T10:36:39.958Z,23.60
2019-06-20T10:39:07.827Z,28.10
2019-06-20T10:41:33.268Z,22.40
2019-06-20T10:43:58.674Z,24.57
2019-06-20T10:46:23.988Z,18.80
2019-06-20T10:48:50.062Z,18.33
2019-06-20T10:51:34.944Z,21.33
2019-06-20T10:54:00.351Z,17.10
2019-06-20T10:56:25.740Z,15.43
2019-06-20T10:58:51.305Z,19.20
2019-06-20T11:01:16.588Z,11.43
2019-06-20T11:03:42.003Z,13.23
2019-06-20T11:06:07.499Z,10.30
2019-06-20T11:08:32.907Z,13.37
2019-06-20T11:10:58.299Z,11.10
2019-06-20T11:13:23.865Z,19.53
2019-06-20T11:15:49.306Z,16.60
2019-06-20T11:18:14.956Z,13.20
2019-06-20T11:20:41.021Z,16.83
2019-06-20T11:23:07.670Z,12.47
2019-06-20T11:25:33.130Z,14.43
2019-06-20T11:27:58.528Z,13.50
2019-06-20T11:30:24.123Z,13.50
2019-06-20T11:32:49.415Z,12.53
2019-06-20T11:35:14.851Z,12.77
2019-06-20T11:37:40.212Z,17.93
2019-06-20T11:40:05.912Z,13.53
2019-06-20T11:42:31.531Z,14.87
2019-06-20T11:44:56.818Z,14.40
2019-06-20T11:47:22.210Z,14.90
2019-06-20T11:49:47.492Z,13.43
2019-06-20T11:52:12.794Z,12.60
2019-06-20T11:54:38.285Z,13.10
2019-06-20T11:57:03.693Z,13.43
2019-06-20T11:59:29.141Z,15.60
2019-06-20T12:01:54.685Z,14.13
2019-06-20T12:04:19.959Z,14.10
2019-06-20T12:06:45.368Z,15.70
2019-06-20T12:09:10.796Z,17.37
2019-06-20T12:11:36.206Z,14.10
2019-06-20T12:14:01.520Z,14.40
2019-06-20T12:16:27.927Z,19.37
2019-06-20T12:18:53.615Z,27.03
2019-06-20T12:21:19.171Z,20.87
2019-06-20T12:23:44.919Z,19.10
2019-06-20T12:26:10.568Z,19.77
2019-06-20T12:28:36.031Z,16.27
2019-06-20T12:31:15.871Z,16.30
2019-06-20T12:33:29.553Z,17.50
2019-06-20T12:35:55.153Z,12.70
2019-06-20T12:38:20.587Z,15.50
2019-06-20T12:40:46.285Z,14.37
2019-06-20T12:43:11.786Z,11.57
2019-06-20T12:45:38.223Z,14.40
2019-06-20T12:48:04.523Z,12.27
2019-06-20T12:50:30.052Z,9.43
2019-06-20T12:52:55.586Z,9.60
2019-06-20T12:55:21.076Z,15.50
2019-06-20T12:57:46.709Z,14.40
2019-06-20T13:00:12.670Z,14.77
2019-06-20T13:02:39.922Z,11.13
2019-06-20T13:05:05.701Z,13.07
2019-06-20T13:07:31.337Z,16.27
2019-06-20T13:09:56.686Z,15.67
2019-06-20T13:12:22.195Z,14.13
2019-06-20T13:14:47.607Z,16.23
2019-06-20T13:17:13.093Z,15.63
2019-06-20T13:19:39.144Z,17.13
2019-06-20T13:22:05.716Z,16.53
2019-06-20T13:24:31.129Z,16.30
2019-06-20T13:26:56.934Z,16.10
2019-06-20T13:29:22.212Z,15.23
2019-06-20T13:32:01.865Z,13.77
2019-06-20T13:34:14.962Z,12.40
2019-06-20T13:36:41.215Z,13.80
2019-06-20T13:39:07.585Z,13.50
2019-06-20T13:41:33.247Z,14.47
2019-06-20T13:43:59.556Z,13.67
2019-06-20T13:46:24.826Z,11.13
2019-06-20T13:48:50.435Z,12.07
2019-06-20T13:51:15.872Z,12.03
2019-06-20T13:53:42.626Z,12.77
2019-06-20T13:56:08.066Z,14.53
2019-06-20T13:58:33.623Z,10.07
2019-06-20T14:00:59.063Z,11.13
2019-06-20T14:03:24.519Z,9.87
2019-06-20T14:05:49.979Z,8.23
2019-06-20T14:08:15.267Z,7.23
2019-06-20T14:10:40.640Z,8.40
2019-06-20T14:13:18.243Z,7.73
2019-06-20T14:15:33.432Z,11.07
2019-06-20T14:17:58.781Z,18.80
2019-06-20T14:20:24.183Z,12.67
2019-06-20T14:22:49.802Z,11.90
2019-06-20T14:25:15.480Z,13.37
2019-06-20T14:27:40.883Z,14.17
2019-06-20T14:30:07.892Z,13.33
2019-06-20T14:32:33.291Z,12.40
2019-06-20T14:34:58.633Z,9.47
2019-06-20T14:37:23.959Z,14.43
2019-06-20T14:39:50.962Z,7.97
2019-06-20T14:42:16.317Z,12.07
2019-06-20T14:44:44.094Z,7.87
2019-06-20T14:47:09.487Z,6.80
2019-06-20T14:49:34.998Z,7.50
2019-06-20T14:52:00.394Z,6.67
2019-06-20T14:54:26.687Z,10.83
2019-06-20T14:56:52.117Z,8.90
2019-06-20T14:59:17.515Z,7.63
2019-06-20T15:01:44.619Z,9.50
2019-06-20T15:04:10.482Z,10.90
2019-06-20T15:06:35.933Z,11.77
2019-06-20T15:09:05.873Z,14.00
2019-06-20T15:11:30.316Z,12.00
2019-06-20T15:13:55.902Z,12.53
2019-06-20T15:16:21.414Z,17.30
2019-06-20T15:18:49.858Z,14.50
2019-06-20T15:21:13.956Z,20.23
2019-06-20T15:23:39.651Z,15.73
2019-06-20T15:26:05.227Z,13.37
2019-06-20T15:28:30.683Z,18.70
2019-06-20T15:30:57.326Z,16.93
2019-06-20T15:33:22.789Z,18.87
2019-06-20T15:35:49.251Z,18.53
2019-06-20T15:38:15.448Z,17.07
2019-06-20T15:40:40.971Z,22.73
2019-06-20T15:43:06.461Z,20.30
2019-06-20T15:45:32.108Z,18.80
2019-06-20T15:47:57.556Z,19.77
2019-06-20T15:50:23.064Z,20.80
2019-06-20T15:52:48.497Z,22.37
2019-06-20T15:55:16.138Z,20.50
2019-06-20T15:57:41.457Z,27.73
2019-06-20T16:00:07.197Z,16.80
2019-06-20T16:02:32.711Z,7.53
2019-06-20T16:04:58.147Z,8.60
2019-06-20T16:07:23.644Z,7.90
2019-06-20T16:09:49.045Z,7.07
2019-06-20T16:12:14.505Z,6.53
2019-06-20T16:14:39.845Z,6.27
2019-06-20T16:17:07.059Z,8.70
2019-06-20T16:19:32.587Z,6.17
2019-06-20T16:21:58.047Z,7.00
2019-06-20T16:24:23.425Z,7.17
2019-06-20T16:26:50.015Z,7.83
2019-06-20T16:29:15.349Z,7.23
2019-06-20T16:31:40.793Z,7.33
2019-06-20T16:34:09.059Z,8.20
2019-06-20T16:36:36.346Z,7.00
2019-06-20T16:39:05.417Z,9.13
2019-06-20T16:41:31.163Z,10.83
2019-06-20T16:43:56.589Z,7.97
2019-06-20T16:46:22.068Z,7.77
2019-06-20T16:48:47.476Z,5.70
2019-06-20T16:51:13.910Z,5.70
2019-06-20T16:53:39.371Z,4.97
2019-06-20T16:56:04.797Z,6.03
2019-06-20T16:58:30.264Z,9.30
2019-06-20T17:00:55.834Z,9.30
2019-06-20T17:03:22.403Z,7.30
2019-06-20T17:05:47.859Z,3.53
2019-06-20T17:08:13.209Z,3.63
2019-06-20T17:10:38.608Z,3.50
2019-06-20T17:13:04.103Z,6.97
2019-06-20T17:15:29.531Z,3.93
2019-06-20T17:17:54.928Z,4.93
2019-06-20T17:20:20.328Z,4.97
2019-06-20T17:22:45.733Z,5.50
2019-06-20T17:25:11.237Z,8.80
2019-06-20T17:27:36.669Z,5.70
2019-06-20T17:30:02.133Z,9.13
2019-06-20T17:32:27.860Z,6.57
2019-06-20T17:34:53.257Z,6.63
2019-06-20T17:37:18.739Z,5.80
2019-06-20T17:39:44.071Z,7.60
2019-06-20T17:42:09.480Z,6.37
2019-06-20T17:44:34.792Z,8.10
2019-06-20T17:47:00.400Z,7.27
2019-06-20T17:49:25.711Z,8.40
2019-06-20T17:51:51.497Z,9.57
2019-06-20T17:54:16.763Z,10.03
2019-06-20T17:56:42.076Z,9.20
2019-06-20T17:59:07.493Z,8.33
2019-06-20T18:01:35.980Z,9.20
2019-06-20T18:04:12.966Z,14.73
2019-06-20T18:06:27.577Z,9.93
2019-06-20T18:08:52.940Z,13.20
2019-06-20T18:11:18.403Z,10.53
2019-06-20T18:13:43.697Z,13.97
2019-06-20T18:16:24.204Z,10.10
2019-06-20T18:18:36.779Z,10.30
2019-06-20T18:21:02.592Z,11.80
2019-06-20T18:23:28.039Z,14.27
2019-06-20T18:25:53.437Z,13.23
2019-06-20T18:28:18.859Z,13.30
2019-06-20T18:30:44.537Z,11.33
2019-06-20T18:33:10.047Z,16.37
2019-06-20T18:35:35.355Z,13.00
2019-06-20T18:38:00.680Z,14.60
2019-06-20T18:40:25.967Z,17.33
2019-06-20T18:42:51.365Z,12.03
2019-06-20T18:45:16.800Z,14.30
2019-06-20T18:47:42.353Z,11.43
2019-06-20T18:50:09.179Z,14.00
2019-06-20T18:52:34.588Z,13.90
2019-06-20T18:55:00.016Z,13.73
2019-06-20T18:57:25.418Z,11.87
2019-06-20T18:59:50.728Z,12.13
2019-06-20T19:02:16.402Z,14.50
2019-06-20T19:04:49.535Z,11.90
2019-06-20T19:07:09.820Z,14.20
2019-06-20T19:09:35.126Z,13.23
2019-06-20T19:12:00.771Z,16.97
2019-06-20T19:14:26.089Z,13.70
2019-06-20T19:16:51.474Z,12.47
2019-06-20T19:19:20.614Z,14.00
2019-06-20T19:21:44.262Z,11.80
2019-06-20T19:24:09.639Z,12.00
2019-06-20T19:26:34.927Z,14.80
2019-06-20T19:29:00.243Z,18.37
2019-06-20T19:31:25.561Z,13.20
2019-06-20T19:33:52.147Z,12.70
2019-06-20T19:36:17.658Z,15.90
2019-06-20T19:38:44.163Z,19.73
2019-06-20T19:41:09.575Z,16.03
2019-06-20T19:43:34.915Z,15.70
2019-06-20T19:46:00.285Z,13.90
2019-06-20T19:48:25.655Z,14.27
2019-06-20T19:50:51.060Z,16.47
2019-06-20T19:53:16.503Z,18.23
2019-06-20T19:55:41.941Z,20.17
2019-06-20T19:58:07.359Z,21.00
2019-06-20T20:00:33.725Z,19.40
2019-06-20T20:02:59.227Z,18.83
2019-06-20T20:05:24.521Z,25.83
2019-06-20T20:07:49.937Z,22.70
2019-06-20T20:10:18.217Z,24.07
2019-06-20T20:12:43.499Z,21.90
2019-06-20T20:15:08.972Z,22.10
2019-06-20T20:17:34.438Z,20.47
2019-06-20T20:19:59.880Z,24.40
2019-06-20T20:22:25.404Z,29.03
2019-06-20T20:24:50.808Z,20.60
2019-06-20T20:27:16.191Z,30.73
2019-06-20T20:29:41.498Z,27.20
2019-06-20T20:32:07.207Z,31.80
2019-06-20T20:34:32.631Z,32.73
2019-06-20T20:36:57.958Z,33.53
2019-06-20T20:39:23.334Z,38.37
2019-06-20T20:41:48.627Z,39.00
2019-06-20T20:44:14.042Z,32.20
2019-06-20T20:46:39.488Z,31.70
2019-06-20T20:49:05.180Z,28.37
2019-06-20T20:51:30.578Z,26.13
2019-06-20T20:53:55.980Z,26.10
2019-06-20T20:56:21.316Z,27.20
2019-06-20T20:58:46.680Z,27.27
2019-06-20T21:01:15.559Z,34.70
2019-06-20T21:03:40.859Z,29.17
2019-06-20T21:06:06.139Z,35.13
2019-06-20T21:08:32.917Z,33.70
2019-06-20T21:10:58.381Z,29.73
2019-06-20T21:13:23.726Z,30.87
2019-06-20T21:15:49.034Z,31.10
2019-06-20T21:18:14.354Z,24.93
2019-06-20T21:20:39.725Z,24.70
2019-06-20T21:23:05.117Z,24.63
2019-06-20T21:25:32.458Z,28.50
2019-06-20T21:27:57.930Z,25.67
2019-06-20T21:30:24.336Z,31.33
2019-06-20T21:32:49.819Z,29.00
2019-06-20T21:35:15.638Z,27.63
2019-06-20T21:37:41.007Z,28.80
2019-06-20T21:40:07.607Z,22.73
2019-06-20T21:42:33.054Z,21.87
2019-06-20T21:44:58.352Z,32.10
2019-06-20T21:47:23.625Z,24.07
2019-06-20T21:49:49.273Z,24.57
2019-06-20T21:52:14.583Z,28.07
2019-06-20T21:54:39.928Z,22.13
2019-06-20T21:57:05.302Z,23.73
2019-06-20T21:59:30.654Z,24.73
2019-06-20T22:01:56.016Z,25.43
2019-06-20T22:04:21.332Z,22.90
2019-06-20T22:06:46.797Z,19.37
2019-06-20T22:09:12.268Z,24.20
2019-06-20T22:11:37.946Z,18.83
2019-06-20T22:14:03.608Z,20.53
2019-06-20T22:16:28.987Z,19.30
2019-06-20T22:18:54.272Z,18.73
2019-06-20T22:21:19.728Z,21.93
2019-06-20T22:23:45.239Z,19.47
2019-06-20T22:26:10.546Z,17.37
2019-06-20T22:28:36.162Z,17.77
2019-06-20T22:31:01.595Z,16.80
2019-06-20T22:33:26.984Z,18.13
2019-06-20T22:35:52.288Z,20.53
2019-06-20T22:38:17.844Z,18.27
2019-06-20T22:40:43.320Z,21.20
2019-06-20T22:43:08.743Z,12.50
2019-06-20T22:45:34.121Z,16.90
2019-06-20T22:47:59.400Z,11.43
2019-06-20T22:50:24.821Z,15.30
2019-06-20T22:52:50.116Z,16.57
2019-06-20T22:55:15.519Z,11.67
2019-06-20T22:57:40.903Z,10.17
2019-06-20T23:00:06.405Z,13.90
2019-06-20T23:02:31.879Z,9.83
2019-06-20T23:04:57.473Z,10.90
2019-06-20T23:07:22.902Z,12.80
2019-06-20T23:09:48.211Z,11.50
2019-06-20T23:12:13.572Z,11.00
2019-06-20T23:14:38.879Z,9.73
2019-06-20T23:17:04.260Z,8.23
2019-06-20T23:19:29.665Z,8.57
2019-06-20T23:21:55.163Z,7.30
2019-06-20T23:24:20.451Z,12.03
2019-06-20T23:26:45.820Z,7.10
2019-06-20T23:29:23.005Z,8.33
2019-06-20T23:31:48.591Z,10.90
2019-06-20T23:34:13.927Z,10.27
2019-06-20T23:36:39.233Z,11.17
2019-06-20T23:39:05.013Z,12.37
2019-06-20T23:41:30.767Z,10.50
2019-06-20T23:43:56.104Z,10.33
2019-06-20T23:46:21.514Z,8.43
2019-06-20T23:48:46.828Z,14.03
2019-06-20T23:51:24.918Z,7.10
2019-06-20T23:53:39.283Z,10.70
2019-06-20T23:56:07.861Z,9.83
2019-06-20T23:58:31.759Z,9.90
